sensor_id;sensor_type;location;lat;lon;timestamp;P1;durP1;ratioP1;P2;durP2;ratioP2
3637;SDS011;1835;50.068;8.154;2022-10-31T00:01:38;15.97;;;3.40;;
3637;SDS011;1835;50.068;8.154;2022-10-31T00:04:06;23.20;;;3.77;;
3637;SDS011;1835;50.068;8.154;2022-10-31T00:06:34;8.43;;;3.20;;
3637;SDS011;1835;50.068;8.154;2022-10-31T00:09:02;9.30;;;3.17;;
3637;SDS011;1835;50.068;8.154;2022-10-31T00:11:30;10.23;;;3.50;;
3637;SDS011;1835;50.068;8.154;2022-10-31T00:14:00;27.47;;;3.57;;
3637;SDS011;1835;50.068;8.154;2022-10-31T00:16:28;11.73;;;3.00;;
3637;SDS011;1835;50.068;8.154;2022-10-31T00:18:57;7.60;;;2.90;;
3637;SDS011;1835;50.068;8.154;2022-10-31T00:21:26;13.60;;;2.97;;
3637;SDS011;1835;50.068;8.154;2022-10-31T00:23:55;10.00;;;2.70;;
3637;SDS011;1835;50.068;8.154;2022-10-31T00:26:22;16.13;;;3.73;;
3637;SDS011;1835;50.068;8.154;2022-10-31T00:28:50;16.33;;;3.17;;
3637;SDS011;1835;50.068;8.154;2022-10-31T00:31:19;9.23;;;3.43;;
3637;SDS011;1835;50.068;8.154;2022-10-31T00:33:47;2.93;;;2.70;;
3637;SDS011;1835;50.068;8.154;2022-10-31T00:36:15;7.67;;;2.57;;
3637;SDS011;1835;50.068;8.154;2022-10-31T00:38:44;8.93;;;3.10;;
3637;SDS011;1835;50.068;8.154;2022-10-31T00:41:12;6.07;;;3.20;;
3637;SDS011;1835;50.068;8.154;2022-10-31T00:43:41;12.93;;;3.50;;
3637;SDS011;1835;50.068;8.154;2022-10-31T00:46:08;4.30;;;2.87;;
3637;SDS011;1835;50.068;8.154;2022-10-31T00:48:37;9.43;;;2.80;;
3637;SDS011;1835;50.068;8.154;2022-10-31T00:51:05;6.53;;;3.00;;
3637;SDS011;1835;50.068;8.154;2022-10-31T00:53:32;12.20;;;3.30;;
3637;SDS011;1835;50.068;8.154;2022-10-31T00:56:00;4.43;;;2.70;;
3637;SDS011;1835;50.068;8.154;2022-10-31T00:58:28;12.90;;;3.50;;
3637;SDS011;1835;50.068;8.154;2022-10-31T01:00:55;13.40;;;2.77;;
3637;SDS011;1835;50.068;8.154;2022-10-31T01:03:23;8.27;;;2.80;;
3637;SDS011;1835;50.068;8.154;2022-10-31T01:05:57;6.57;;;3.27;;
3637;SDS011;1835;50.068;8.154;2022-10-31T01:08:25;15.67;;;2.97;;
3637;SDS011;1835;50.068;8.154;2022-10-31T01:11:00;12.33;;;3.03;;
3637;SDS011;1835;50.068;8.154;2022-10-31T01:13:31;21.10;;;3.30;;
3637;SDS011;1835;50.068;8.154;2022-10-31T01:15:59;15.37;;;2.67;;
3637;SDS011;1835;50.068;8.154;2022-10-31T01:18:28;6.00;;;3.10;;
3637;SDS011;1835;50.068;8.154;2022-10-31T01:20:58;17.23;;;3.10;;
3637;SDS011;1835;50.068;8.154;2022-10-31T01:23:27;15.17;;;4.80;;
3637;SDS011;1835;50.068;8.154;2022-10-31T01:25:58;10.80;;;2.93;;
3637;SDS011;1835;50.068;8.154;2022-10-31T01:28:31;17.13;;;3.70;;
3637;SDS011;1835;50.068;8.154;2022-10-31T01:31:03;10.60;;;3.20;;
3637;SDS011;1835;50.068;8.154;2022-10-31T01:33:32;7.73;;;3.30;;
3637;SDS011;1835;50.068;8.154;2022-10-31T01:36:01;11.13;;;3.37;;
3637;SDS011;1835;50.068;8.154;2022-10-31T01:38:38;4.10;;;3.10;;
3637;SDS011;1835;50.068;8.154;2022-10-31T01:41:06;4.87;;;3.20;;
3637;SDS011;1835;50.068;8.154;2022-10-31T01:43:44;10.80;;;3.77;;
3637;SDS011;1835;50.068;8.154;2022-10-31T01:46:12;5.73;;;2.77;;
3637;SDS011;1835;50.068;8.154;2022-10-31T01:48:40;11.17;;;3.00;;
3637;SDS011;1835;50.068;8.154;2022-10-31T01:51:10;4.50;;;2.77;;
3637;SDS011;1835;50.068;8.154;2022-10-31T01:53:39;12.13;;;4.00;;
3637;SDS011;1835;50.068;8.154;2022-10-31T01:56:08;6.27;;;3.57;;
3637;SDS011;1835;50.068;8.154;2022-10-31T01:58:36;7.00;;;3.27;;
3637;SDS011;1835;50.068;8.154;2022-10-31T02:01:03;10.53;;;3.60;;
3637;SDS011;1835;50.068;8.154;2022-10-31T02:03:33;11.83;;;3.53;;
3637;SDS011;1835;50.068;8.154;2022-10-31T02:06:01;5.63;;;3.40;;
3637;SDS011;1835;50.068;8.154;2022-10-31T02:08:32;15.97;;;3.97;;
3637;SDS011;1835;50.068;8.154;2022-10-31T02:11:00;13.77;;;3.67;;
3637;SDS011;1835;50.068;8.154;2022-10-31T02:13:28;12.10;;;4.00;;
3637;SDS011;1835;50.068;8.154;2022-10-31T02:15:57;4.70;;;2.90;;
3637;SDS011;1835;50.068;8.154;2022-10-31T02:18:26;6.27;;;3.27;;
3637;SDS011;1835;50.068;8.154;2022-10-31T02:20:58;7.13;;;3.30;;
3637;SDS011;1835;50.068;8.154;2022-10-31T02:23:42;7.50;;;4.07;;
3637;SDS011;1835;50.068;8.154;2022-10-31T02:29:25;11.20;;;3.20;;
3637;SDS011;1835;50.068;8.154;2022-10-31T02:32:03;8.57;;;3.23;;
3637;SDS011;1835;50.068;8.154;2022-10-31T02:34:34;11.07;;;2.90;;
3637;SDS011;1835;50.068;8.154;2022-10-31T02:37:06;5.70;;;2.67;;
3637;SDS011;1835;50.068;8.154;2022-10-31T02:39:37;16.80;;;4.43;;
3637;SDS011;1835;50.068;8.154;2022-10-31T02:42:12;9.10;;;3.20;;
3637;SDS011;1835;50.068;8.154;2022-10-31T02:44:42;13.60;;;3.63;;
3637;SDS011;1835;50.068;8.154;2022-10-31T02:47:14;5.90;;;3.00;;
3637;SDS011;1835;50.068;8.154;2022-10-31T02:49:45;9.80;;;3.50;;
3637;SDS011;1835;50.068;8.154;2022-10-31T02:52:18;18.37;;;3.70;;
3637;SDS011;1835;50.068;8.154;2022-10-31T02:54:47;15.23;;;4.93;;
3637;SDS011;1835;50.068;8.154;2022-10-31T02:57:17;6.80;;;3.20;;
3637;SDS011;1835;50.068;8.154;2022-10-31T02:59:46;21.40;;;4.00;;
3637;SDS011;1835;50.068;8.154;2022-10-31T03:02:30;6.00;;;3.43;;
3637;SDS011;1835;50.068;8.154;2022-10-31T03:08:01;7.23;;;3.17;;
3637;SDS011;1835;50.068;8.154;2022-10-31T03:10:35;16.63;;;3.40;;
3637;SDS011;1835;50.068;8.154;2022-10-31T03:13:05;10.90;;;3.00;;
3637;SDS011;1835;50.068;8.154;2022-10-31T03:15:37;7.90;;;3.00;;
3637;SDS011;1835;50.068;8.154;2022-10-31T03:18:08;12.47;;;3.50;;
3637;SDS011;1835;50.068;8.154;2022-10-31T03:20:37;11.93;;;3.63;;
3637;SDS011;1835;50.068;8.154;2022-10-31T03:23:07;12.17;;;3.70;;
3637;SDS011;1835;50.068;8.154;2022-10-31T03:25:38;17.13;;;3.30;;
3637;SDS011;1835;50.068;8.154;2022-10-31T03:28:06;9.43;;;3.53;;
3637;SDS011;1835;50.068;8.154;2022-10-31T03:30:35;15.10;;;3.50;;
3637;SDS011;1835;50.068;8.154;2022-10-31T03:33:06;7.53;;;3.33;;
3637;SDS011;1835;50.068;8.154;2022-10-31T03:35:36;5.83;;;2.70;;
3637;SDS011;1835;50.068;8.154;2022-10-31T03:38:06;10.17;;;4.13;;
3637;SDS011;1835;50.068;8.154;2022-10-31T03:40:34;13.80;;;4.43;;
3637;SDS011;1835;50.068;8.154;2022-10-31T03:43:03;10.30;;;3.60;;
3637;SDS011;1835;50.068;8.154;2022-10-31T03:45:36;12.63;;;3.93;;
3637;SDS011;1835;50.068;8.154;2022-10-31T03:48:09;6.50;;;3.20;;
3637;SDS011;1835;50.068;8.154;2022-10-31T03:50:38;11.23;;;4.10;;
3637;SDS011;1835;50.068;8.154;2022-10-31T03:53:10;9.43;;;3.50;;
3637;SDS011;1835;50.068;8.154;2022-10-31T03:55:40;10.10;;;3.53;;
3637;SDS011;1835;50.068;8.154;2022-10-31T03:58:10;10.53;;;3.57;;
3637;SDS011;1835;50.068;8.154;2022-10-31T04:00:41;8.00;;;3.97;;
3637;SDS011;1835;50.068;8.154;2022-10-31T04:03:12;7.93;;;3.30;;
3637;SDS011;1835;50.068;8.154;2022-10-31T04:05:42;6.87;;;3.67;;
3637;SDS011;1835;50.068;8.154;2022-10-31T04:08:12;7.67;;;4.17;;
3637;SDS011;1835;50.068;8.154;2022-10-31T04:10:43;9.10;;;3.90;;
3637;SDS011;1835;50.068;8.154;2022-10-31T04:13:12;7.60;;;3.03;;
3637;SDS011;1835;50.068;8.154;2022-10-31T04:15:42;10.50;;;3.60;;
3637;SDS011;1835;50.068;8.154;2022-10-31T04:18:12;6.77;;;2.67;;
3637;SDS011;1835;50.068;8.154;2022-10-31T04:20:40;6.60;;;3.63;;
3637;SDS011;1835;50.068;8.154;2022-10-31T04:23:11;5.93;;;3.53;;
3637;SDS011;1835;50.068;8.154;2022-10-31T04:25:43;17.83;;;4.13;;
3637;SDS011;1835;50.068;8.154;2022-10-31T04:28:11;7.83;;;3.20;;
3637;SDS011;1835;50.068;8.154;2022-10-31T04:30:38;13.00;;;2.90;;
3637;SDS011;1835;50.068;8.154;2022-10-31T04:33:06;11.00;;;3.13;;
3637;SDS011;1835;50.068;8.154;2022-10-31T04:35:35;11.67;;;3.83;;
3637;SDS011;1835;50.068;8.154;2022-10-31T04:38:05;11.57;;;3.40;;
3637;SDS011;1835;50.068;8.154;2022-10-31T04:40:32;13.60;;;3.83;;
3637;SDS011;1835;50.068;8.154;2022-10-31T04:43:00;7.50;;;3.70;;
3637;SDS011;1835;50.068;8.154;2022-10-31T04:45:28;3.60;;;3.17;;
3637;SDS011;1835;50.068;8.154;2022-10-31T04:47:57;19.53;;;3.50;;
3637;SDS011;1835;50.068;8.154;2022-10-31T04:50:26;11.07;;;3.83;;
3637;SDS011;1835;50.068;8.154;2022-10-31T04:52:55;15.87;;;4.37;;
3637;SDS011;1835;50.068;8.154;2022-10-31T04:55:22;9.00;;;2.77;;
3637;SDS011;1835;50.068;8.154;2022-10-31T04:57:50;17.73;;;4.37;;
3637;SDS011;1835;50.068;8.154;2022-10-31T05:00:18;7.20;;;3.30;;
3637;SDS011;1835;50.068;8.154;2022-10-31T05:02:47;4.93;;;3.10;;
3637;SDS011;1835;50.068;8.154;2022-10-31T05:05:15;16.23;;;3.90;;
3637;SDS011;1835;50.068;8.154;2022-10-31T05:07:44;7.10;;;3.53;;
3637;SDS011;1835;50.068;8.154;2022-10-31T05:10:14;7.10;;;3.00;;
3637;SDS011;1835;50.068;8.154;2022-10-31T05:12:47;7.37;;;3.13;;
3637;SDS011;1835;50.068;8.154;2022-10-31T05:15:15;4.10;;;3.17;;
3637;SDS011;1835;50.068;8.154;2022-10-31T05:17:43;13.70;;;3.40;;
3637;SDS011;1835;50.068;8.154;2022-10-31T05:20:11;6.77;;;3.60;;
3637;SDS011;1835;50.068;8.154;2022-10-31T05:22:41;10.30;;;3.77;;
3637;SDS011;1835;50.068;8.154;2022-10-31T05:25:11;11.27;;;4.50;;
3637;SDS011;1835;50.068;8.154;2022-10-31T05:27:40;16.60;;;3.87;;
3637;SDS011;1835;50.068;8.154;2022-10-31T05:30:09;15.77;;;3.60;;
3637;SDS011;1835;50.068;8.154;2022-10-31T05:32:38;12.50;;;3.80;;
3637;SDS011;1835;50.068;8.154;2022-10-31T05:35:06;6.20;;;2.63;;
3637;SDS011;1835;50.068;8.154;2022-10-31T05:37:35;11.03;;;3.50;;
3637;SDS011;1835;50.068;8.154;2022-10-31T05:40:02;15.97;;;2.63;;
3637;SDS011;1835;50.068;8.154;2022-10-31T05:42:33;9.17;;;3.90;;
3637;SDS011;1835;50.068;8.154;2022-10-31T05:45:03;6.97;;;3.10;;
3637;SDS011;1835;50.068;8.154;2022-10-31T05:47:31;17.60;;;3.93;;
3637;SDS011;1835;50.068;8.154;2022-10-31T05:49:59;12.43;;;3.63;;
3637;SDS011;1835;50.068;8.154;2022-10-31T05:52:26;13.60;;;4.00;;
3637;SDS011;1835;50.068;8.154;2022-10-31T05:54:54;15.30;;;4.30;;
3637;SDS011;1835;50.068;8.154;2022-10-31T05:57:21;11.63;;;3.20;;
3637;SDS011;1835;50.068;8.154;2022-10-31T05:59:49;4.77;;;2.90;;
3637;SDS011;1835;50.068;8.154;2022-10-31T06:02:21;5.53;;;3.57;;
3637;SDS011;1835;50.068;8.154;2022-10-31T06:04:49;11.77;;;3.43;;
3637;SDS011;1835;50.068;8.154;2022-10-31T06:07:17;10.53;;;3.57;;
3637;SDS011;1835;50.068;8.154;2022-10-31T06:09:45;10.97;;;3.20;;
3637;SDS011;1835;50.068;8.154;2022-10-31T06:12:12;8.40;;;3.40;;
3637;SDS011;1835;50.068;8.154;2022-10-31T06:14:40;10.90;;;3.30;;
3637;SDS011;1835;50.068;8.154;2022-10-31T06:17:07;5.53;;;2.93;;
3637;SDS011;1835;50.068;8.154;2022-10-31T06:19:36;6.00;;;3.57;;
3637;SDS011;1835;50.068;8.154;2022-10-31T06:22:04;12.43;;;3.67;;
3637;SDS011;1835;50.068;8.154;2022-10-31T06:24:32;7.50;;;3.10;;
3637;SDS011;1835;50.068;8.154;2022-10-31T06:26:59;12.93;;;4.30;;
3637;SDS011;1835;50.068;8.154;2022-10-31T06:29:27;17.63;;;4.10;;
3637;SDS011;1835;50.068;8.154;2022-10-31T06:31:54;25.43;;;6.30;;
3637;SDS011;1835;50.068;8.154;2022-10-31T06:34:22;8.83;;;3.23;;
3637;SDS011;1835;50.068;8.154;2022-10-31T06:36:51;9.07;;;3.73;;
3637;SDS011;1835;50.068;8.154;2022-10-31T06:39:19;9.00;;;3.30;;
3637;SDS011;1835;50.068;8.154;2022-10-31T06:41:46;10.93;;;3.83;;
3637;SDS011;1835;50.068;8.154;2022-10-31T06:44:14;11.90;;;3.63;;
3637;SDS011;1835;50.068;8.154;2022-10-31T06:46:42;21.07;;;3.40;;
3637;SDS011;1835;50.068;8.154;2022-10-31T06:49:09;6.30;;;3.47;;
3637;SDS011;1835;50.068;8.154;2022-10-31T06:51:37;11.53;;;3.20;;
3637;SDS011;1835;50.068;8.154;2022-10-31T06:54:05;21.67;;;4.03;;
3637;SDS011;1835;50.068;8.154;2022-10-31T06:56:33;15.03;;;3.73;;
3637;SDS011;1835;50.068;8.154;2022-10-31T06:59:01;30.30;;;7.30;;
3637;SDS011;1835;50.068;8.154;2022-10-31T07:01:28;13.53;;;3.80;;
3637;SDS011;1835;50.068;8.154;2022-10-31T07:03:56;4.93;;;3.10;;
3637;SDS011;1835;50.068;8.154;2022-10-31T07:06:23;12.83;;;4.20;;
3637;SDS011;1835;50.068;8.154;2022-10-31T07:08:51;15.63;;;5.20;;
3637;SDS011;1835;50.068;8.154;2022-10-31T07:11:20;13.70;;;3.97;;
3637;SDS011;1835;50.068;8.154;2022-10-31T07:13:48;18.33;;;4.77;;
3637;SDS011;1835;50.068;8.154;2022-10-31T07:16:15;8.33;;;3.80;;
3637;SDS011;1835;50.068;8.154;2022-10-31T07:18:43;12.17;;;3.77;;
3637;SDS011;1835;50.068;8.154;2022-10-31T07:21:10;18.37;;;4.13;;
3637;SDS011;1835;50.068;8.154;2022-10-31T07:23:38;11.30;;;3.73;;
3637;SDS011;1835;50.068;8.154;2022-10-31T07:26:05;5.57;;;3.37;;
3637;SDS011;1835;50.068;8.154;2022-10-31T07:28:34;5.77;;;2.80;;
3637;SDS011;1835;50.068;8.154;2022-10-31T07:31:02;11.77;;;3.60;;
3637;SDS011;1835;50.068;8.154;2022-10-31T07:33:29;16.60;;;4.63;;
3637;SDS011;1835;50.068;8.154;2022-10-31T07:35:57;24.80;;;4.23;;
3637;SDS011;1835;50.068;8.154;2022-10-31T07:38:24;14.37;;;3.33;;
3637;SDS011;1835;50.068;8.154;2022-10-31T07:40:52;7.60;;;3.17;;
3637;SDS011;1835;50.068;8.154;2022-10-31T07:43:20;7.70;;;3.70;;
3637;SDS011;1835;50.068;8.154;2022-10-31T07:45:50;6.37;;;3.80;;
3637;SDS011;1835;50.068;8.154;2022-10-31T07:48:18;14.00;;;3.43;;
3637;SDS011;1835;50.068;8.154;2022-10-31T07:50:46;7.30;;;3.40;;
3637;SDS011;1835;50.068;8.154;2022-10-31T07:53:13;12.17;;;3.80;;
3637;SDS011;1835;50.068;8.154;2022-10-31T07:55:42;17.17;;;3.37;;
3637;SDS011;1835;50.068;8.154;2022-10-31T07:58:10;18.67;;;3.40;;
3637;SDS011;1835;50.068;8.154;2022-10-31T08:00:41;8.10;;;3.00;;
3637;SDS011;1835;50.068;8.154;2022-10-31T08:03:11;7.00;;;3.83;;
3637;SDS011;1835;50.068;8.154;2022-10-31T08:05:39;15.63;;;4.30;;
3637;SDS011;1835;50.068;8.154;2022-10-31T08:08:07;9.80;;;4.33;;
3637;SDS011;1835;50.068;8.154;2022-10-31T08:10:35;11.33;;;5.23;;
3637;SDS011;1835;50.068;8.154;2022-10-31T08:13:04;9.73;;;5.10;;
3637;SDS011;1835;50.068;8.154;2022-10-31T08:15:33;15.30;;;6.73;;
3637;SDS011;1835;50.068;8.154;2022-10-31T08:18:04;23.30;;;7.50;;
3637;SDS011;1835;50.068;8.154;2022-10-31T08:20:33;11.60;;;4.43;;
3637;SDS011;1835;50.068;8.154;2022-10-31T08:23:01;8.93;;;3.90;;
3637;SDS011;1835;50.068;8.154;2022-10-31T08:25:31;5.90;;;3.27;;
3637;SDS011;1835;50.068;8.154;2022-10-31T08:28:04;6.90;;;3.13;;
3637;SDS011;1835;50.068;8.154;2022-10-31T08:30:33;7.47;;;4.57;;
3637;SDS011;1835;50.068;8.154;2022-10-31T08:33:03;11.07;;;3.37;;
3637;SDS011;1835;50.068;8.154;2022-10-31T08:35:32;9.83;;;4.50;;
3637;SDS011;1835;50.068;8.154;2022-10-31T08:38:00;14.37;;;3.80;;
3637;SDS011;1835;50.068;8.154;2022-10-31T08:40:30;10.60;;;4.23;;
3637;SDS011;1835;50.068;8.154;2022-10-31T08:43:02;7.97;;;3.50;;
3637;SDS011;1835;50.068;8.154;2022-10-31T08:45:31;16.07;;;4.00;;
3637;SDS011;1835;50.068;8.154;2022-10-31T08:48:00;9.57;;;4.47;;
3637;SDS011;1835;50.068;8.154;2022-10-31T08:50:30;10.43;;;4.47;;
3637;SDS011;1835;50.068;8.154;2022-10-31T08:53:03;10.53;;;4.37;;
3637;SDS011;1835;50.068;8.154;2022-10-31T08:55:32;11.80;;;4.53;;
3637;SDS011;1835;50.068;8.154;2022-10-31T08:58:00;7.20;;;3.83;;
3637;SDS011;1835;50.068;8.154;2022-10-31T09:00:28;17.00;;;6.53;;
3637;SDS011;1835;50.068;8.154;2022-10-31T09:02:56;16.50;;;5.10;;
3637;SDS011;1835;50.068;8.154;2022-10-31T09:05:24;11.60;;;4.90;;
3637;SDS011;1835;50.068;8.154;2022-10-31T09:07:54;8.07;;;4.70;;
3637;SDS011;1835;50.068;8.154;2022-10-31T09:10:24;10.80;;;4.80;;
3637;SDS011;1835;50.068;8.154;2022-10-31T09:12:55;9.77;;;4.73;;
3637;SDS011;1835;50.068;8.154;2022-10-31T09:15:23;9.10;;;4.80;;
3637;SDS011;1835;50.068;8.154;2022-10-31T09:17:51;10.17;;;4.60;;
3637;SDS011;1835;50.068;8.154;2022-10-31T09:20:19;16.27;;;5.83;;
3637;SDS011;1835;50.068;8.154;2022-10-31T09:22:46;17.93;;;5.43;;
3637;SDS011;1835;50.068;8.154;2022-10-31T09:25:14;5.77;;;5.07;;
3637;SDS011;1835;50.068;8.154;2022-10-31T09:27:43;11.73;;;5.03;;
3637;SDS011;1835;50.068;8.154;2022-10-31T09:30:11;18.10;;;5.37;;
3637;SDS011;1835;50.068;8.154;2022-10-31T09:32:39;18.77;;;5.73;;
3637;SDS011;1835;50.068;8.154;2022-10-31T09:35:07;12.00;;;7.00;;
3637;SDS011;1835;50.068;8.154;2022-10-31T09:37:34;12.13;;;5.50;;
3637;SDS011;1835;50.068;8.154;2022-10-31T09:40:03;19.63;;;6.10;;
3637;SDS011;1835;50.068;8.154;2022-10-31T09:42:47;17.73;;;5.97;;
3637;SDS011;1835;50.068;8.154;2022-10-31T09:45:26;11.33;;;6.13;;
3637;SDS011;1835;50.068;8.154;2022-10-31T09:48:05;9.00;;;5.97;;
3637;SDS011;1835;50.068;8.154;2022-10-31T09:50:38;13.07;;;5.77;;
3637;SDS011;1835;50.068;8.154;2022-10-31T09:53:10;10.37;;;5.60;;
3637;SDS011;1835;50.068;8.154;2022-10-31T09:55:44;26.17;;;6.00;;
3637;SDS011;1835;50.068;8.154;2022-10-31T09:58:15;25.80;;;6.77;;
3637;SDS011;1835;50.068;8.154;2022-10-31T10:00:44;11.93;;;6.03;;
3637;SDS011;1835;50.068;8.154;2022-10-31T10:03:18;13.70;;;6.50;;
3637;SDS011;1835;50.068;8.154;2022-10-31T10:05:56;18.03;;;5.13;;
3637;SDS011;1835;50.068;8.154;2022-10-31T10:08:30;10.03;;;5.40;;
3637;SDS011;1835;50.068;8.154;2022-10-31T10:11:00;17.73;;;5.90;;
3637;SDS011;1835;50.068;8.154;2022-10-31T10:13:57;13.27;;;6.67;;
3637;SDS011;1835;50.068;8.154;2022-10-31T10:16:36;19.40;;;6.60;;
3637;SDS011;1835;50.068;8.154;2022-10-31T10:19:15;20.37;;;6.00;;
3637;SDS011;1835;50.068;8.154;2022-10-31T10:21:53;11.00;;;6.03;;
3637;SDS011;1835;50.068;8.154;2022-10-31T10:24:28;13.33;;;6.53;;
3637;SDS011;1835;50.068;8.154;2022-10-31T10:27:03;13.60;;;5.50;;
3637;SDS011;1835;50.068;8.154;2022-10-31T10:29:39;29.00;;;6.23;;
3637;SDS011;1835;50.068;8.154;2022-10-31T10:32:10;8.60;;;5.10;;
3637;SDS011;1835;50.068;8.154;2022-10-31T10:34:43;16.20;;;5.37;;
3637;SDS011;1835;50.068;8.154;2022-10-31T10:37:16;17.90;;;5.60;;
3637;SDS011;1835;50.068;8.154;2022-10-31T10:39:49;17.57;;;6.13;;
3637;SDS011;1835;50.068;8.154;2022-10-31T10:42:20;12.40;;;6.07;;
3637;SDS011;1835;50.068;8.154;2022-10-31T10:45:13;15.47;;;5.27;;
3637;SDS011;1835;50.068;8.154;2022-10-31T10:48:02;13.63;;;6.00;;
3637;SDS011;1835;50.068;8.154;2022-10-31T10:50:36;12.23;;;5.50;;
3637;SDS011;1835;50.068;8.154;2022-10-31T10:53:09;15.90;;;5.47;;
3637;SDS011;1835;50.068;8.154;2022-10-31T10:55:49;19.57;;;6.47;;
3637;SDS011;1835;50.068;8.154;2022-10-31T10:58:19;11.10;;;5.60;;
3637;SDS011;1835;50.068;8.154;2022-10-31T11:00:48;13.60;;;5.20;;
3637;SDS011;1835;50.068;8.154;2022-10-31T11:03:17;14.80;;;6.13;;
3637;SDS011;1835;50.068;8.154;2022-10-31T11:05:46;12.20;;;5.33;;
3637;SDS011;1835;50.068;8.154;2022-10-31T11:08:22;15.30;;;5.00;;
3637;SDS011;1835;50.068;8.154;2022-10-31T11:10:58;12.40;;;6.60;;
3637;SDS011;1835;50.068;8.154;2022-10-31T11:13:26;17.83;;;5.20;;
3637;SDS011;1835;50.068;8.154;2022-10-31T11:15:58;9.60;;;5.70;;
3637;SDS011;1835;50.068;8.154;2022-10-31T11:18:27;20.43;;;5.63;;
3637;SDS011;1835;50.068;8.154;2022-10-31T11:20:57;12.00;;;6.30;;
3637;SDS011;1835;50.068;8.154;2022-10-31T11:23:26;15.23;;;5.47;;
3637;SDS011;1835;50.068;8.154;2022-10-31T11:25:55;17.33;;;6.00;;
3637;SDS011;1835;50.068;8.154;2022-10-31T11:28:24;13.93;;;5.50;;
3637;SDS011;1835;50.068;8.154;2022-10-31T11:30:53;20.57;;;5.80;;
3637;SDS011;1835;50.068;8.154;2022-10-31T11:33:24;13.97;;;4.80;;
3637;SDS011;1835;50.068;8.154;2022-10-31T11:35:55;11.33;;;5.47;;
3637;SDS011;1835;50.068;8.154;2022-10-31T11:38:26;31.93;;;5.47;;
3637;SDS011;1835;50.068;8.154;2022-10-31T11:41:03;10.93;;;5.20;;
3637;SDS011;1835;50.068;8.154;2022-10-31T11:43:34;11.50;;;5.50;;
3637;SDS011;1835;50.068;8.154;2022-10-31T11:46:08;13.70;;;6.73;;
3637;SDS011;1835;50.068;8.154;2022-10-31T11:48:38;20.67;;;5.40;;
3637;SDS011;1835;50.068;8.154;2022-10-31T11:51:05;16.53;;;7.57;;
3637;SDS011;1835;50.068;8.154;2022-10-31T11:53:34;22.70;;;7.63;;
3637;SDS011;1835;50.068;8.154;2022-10-31T11:56:03;28.17;;;7.80;;
3637;SDS011;1835;50.068;8.154;2022-10-31T11:58:33;21.37;;;7.00;;
3637;SDS011;1835;50.068;8.154;2022-10-31T12:01:00;11.13;;;5.53;;
3637;SDS011;1835;50.068;8.154;2022-10-31T12:03:40;15.93;;;6.33;;
3637;SDS011;1835;50.068;8.154;2022-10-31T12:06:12;13.37;;;5.93;;
3637;SDS011;1835;50.068;8.154;2022-10-31T12:08:44;16.10;;;6.87;;
3637;SDS011;1835;50.068;8.154;2022-10-31T12:11:18;11.40;;;6.83;;
3637;SDS011;1835;50.068;8.154;2022-10-31T12:13:58;12.57;;;6.13;;
3637;SDS011;1835;50.068;8.154;2022-10-31T12:16:31;8.57;;;5.30;;
3637;SDS011;1835;50.068;8.154;2022-10-31T12:19:04;16.47;;;6.20;;
3637;SDS011;1835;50.068;8.154;2022-10-31T12:21:42;21.63;;;6.37;;
3637;SDS011;1835;50.068;8.154;2022-10-31T12:24:29;14.97;;;6.27;;
3637;SDS011;1835;50.068;8.154;2022-10-31T12:27:08;18.57;;;6.70;;
3637;SDS011;1835;50.068;8.154;2022-10-31T12:29:48;16.73;;;6.00;;
3637;SDS011;1835;50.068;8.154;2022-10-31T12:32:27;12.30;;;5.40;;
3637;SDS011;1835;50.068;8.154;2022-10-31T12:37:52;18.63;;;6.60;;
3637;SDS011;1835;50.068;8.154;2022-10-31T12:40:33;12.50;;;5.90;;
3637;SDS011;1835;50.068;8.154;2022-10-31T12:43:09;17.57;;;6.03;;
3637;SDS011;1835;50.068;8.154;2022-10-31T12:45:49;14.67;;;5.37;;
3637;SDS011;1835;50.068;8.154;2022-10-31T12:51:26;19.00;;;6.37;;
3637;SDS011;1835;50.068;8.154;2022-10-31T12:54:03;18.63;;;7.20;;
3637;SDS011;1835;50.068;8.154;2022-10-31T12:56:55;22.00;;;6.63;;
3637;SDS011;1835;50.068;8.154;2022-10-31T12:59:29;10.60;;;5.20;;
3637;SDS011;1835;50.068;8.154;2022-10-31T13:01:59;18.83;;;5.80;;
3637;SDS011;1835;50.068;8.154;2022-10-31T13:04:38;17.03;;;5.90;;
3637;SDS011;1835;50.068;8.154;2022-10-31T13:07:11;13.50;;;5.63;;
3637;SDS011;1835;50.068;8.154;2022-10-31T13:09:53;24.13;;;5.47;;
3637;SDS011;1835;50.068;8.154;2022-10-31T13:12:23;12.17;;;5.63;;
3637;SDS011;1835;50.068;8.154;2022-10-31T13:14:52;10.77;;;5.60;;
3637;SDS011;1835;50.068;8.154;2022-10-31T13:17:25;10.57;;;5.10;;
3637;SDS011;1835;50.068;8.154;2022-10-31T13:20:11;14.47;;;5.67;;
3637;SDS011;1835;50.068;8.154;2022-10-31T13:22:44;19.50;;;5.80;;
3637;SDS011;1835;50.068;8.154;2022-10-31T13:25:14;14.43;;;5.80;;
3637;SDS011;1835;50.068;8.154;2022-10-31T13:27:44;18.30;;;7.43;;
3637;SDS011;1835;50.068;8.154;2022-10-31T13:30:15;15.60;;;6.53;;
3637;SDS011;1835;50.068;8.154;2022-10-31T13:32:44;20.67;;;8.47;;
3637;SDS011;1835;50.068;8.154;2022-10-31T13:35:17;16.20;;;6.80;;
3637;SDS011;1835;50.068;8.154;2022-10-31T13:37:50;16.87;;;5.97;;
3637;SDS011;1835;50.068;8.154;2022-10-31T13:40:24;28.77;;;7.20;;
3637;SDS011;1835;50.068;8.154;2022-10-31T13:43:05;19.37;;;7.20;;
3637;SDS011;1835;50.068;8.154;2022-10-31T13:45:47;22.87;;;7.80;;
3637;SDS011;1835;50.068;8.154;2022-10-31T13:48:32;16.20;;;7.27;;
3637;SDS011;1835;50.068;8.154;2022-10-31T13:51:02;27.20;;;8.07;;
3637;SDS011;1835;50.068;8.154;2022-10-31T13:53:42;20.10;;;7.07;;
3637;SDS011;1835;50.068;8.154;2022-10-31T13:56:15;11.67;;;6.60;;
3637;SDS011;1835;50.068;8.154;2022-10-31T13:58:55;26.57;;;8.80;;
3637;SDS011;1835;50.068;8.154;2022-10-31T14:01:25;22.13;;;7.50;;
3637;SDS011;1835;50.068;8.154;2022-10-31T14:03:57;11.30;;;5.53;;
3637;SDS011;1835;50.068;8.154;2022-10-31T14:06:39;13.17;;;5.83;;
3637;SDS011;1835;50.068;8.154;2022-10-31T14:09:21;17.60;;;6.43;;
3637;SDS011;1835;50.068;8.154;2022-10-31T14:11:52;15.93;;;6.13;;
3637;SDS011;1835;50.068;8.154;2022-10-31T14:14:20;9.77;;;6.20;;
3637;SDS011;1835;50.068;8.154;2022-10-31T14:16:53;14.43;;;6.83;;
3637;SDS011;1835;50.068;8.154;2022-10-31T14:19:22;18.53;;;6.77;;
3637;SDS011;1835;50.068;8.154;2022-10-31T14:21:50;19.57;;;6.63;;
3637;SDS011;1835;50.068;8.154;2022-10-31T14:24:32;18.00;;;6.87;;
3637;SDS011;1835;50.068;8.154;2022-10-31T14:27:02;14.57;;;6.67;;
3637;SDS011;1835;50.068;8.154;2022-10-31T14:29:32;25.53;;;7.70;;
3637;SDS011;1835;50.068;8.154;2022-10-31T14:32:02;15.80;;;7.30;;
3637;SDS011;1835;50.068;8.154;2022-10-31T14:34:37;12.70;;;6.63;;
3637;SDS011;1835;50.068;8.154;2022-10-31T14:37:15;19.20;;;7.50;;
3637;SDS011;1835;50.068;8.154;2022-10-31T14:40:05;19.43;;;6.80;;
3637;SDS011;1835;50.068;8.154;2022-10-31T14:42:43;10.13;;;5.93;;
3637;SDS011;1835;50.068;8.154;2022-10-31T14:45:22;9.77;;;5.70;;
3637;SDS011;1835;50.068;8.154;2022-10-31T14:47:57;14.70;;;5.30;;
3637;SDS011;1835;50.068;8.154;2022-10-31T14:50:37;12.20;;;5.37;;
3637;SDS011;1835;50.068;8.154;2022-10-31T14:53:11;14.33;;;7.13;;
3637;SDS011;1835;50.068;8.154;2022-10-31T14:55:45;21.20;;;6.13;;
3637;SDS011;1835;50.068;8.154;2022-10-31T14:58:15;10.60;;;5.30;;
3637;SDS011;1835;50.068;8.154;2022-10-31T15:00:50;10.70;;;4.60;;
3637;SDS011;1835;50.068;8.154;2022-10-31T15:03:22;14.70;;;6.50;;
3637;SDS011;1835;50.068;8.154;2022-10-31T15:05:52;5.87;;;4.70;;
3637;SDS011;1835;50.068;8.154;2022-10-31T15:08:33;10.47;;;5.00;;
3637;SDS011;1835;50.068;8.154;2022-10-31T15:11:12;21.37;;;4.87;;
3637;SDS011;1835;50.068;8.154;2022-10-31T15:13:42;17.70;;;4.93;;
3637;SDS011;1835;50.068;8.154;2022-10-31T15:16:11;12.67;;;5.60;;
3637;SDS011;1835;50.068;8.154;2022-10-31T15:18:46;12.47;;;4.83;;
3637;SDS011;1835;50.068;8.154;2022-10-31T15:21:15;14.80;;;4.83;;
3637;SDS011;1835;50.068;8.154;2022-10-31T15:23:43;8.20;;;4.50;;
3637;SDS011;1835;50.068;8.154;2022-10-31T15:26:14;7.73;;;4.80;;
3637;SDS011;1835;50.068;8.154;2022-10-31T15:28:44;16.50;;;5.50;;
3637;SDS011;1835;50.068;8.154;2022-10-31T15:31:13;25.53;;;4.87;;
3637;SDS011;1835;50.068;8.154;2022-10-31T15:33:42;9.80;;;4.73;;
3637;SDS011;1835;50.068;8.154;2022-10-31T15:36:18;15.10;;;5.60;;
3637;SDS011;1835;50.068;8.154;2022-10-31T15:38:55;9.23;;;5.37;;
3637;SDS011;1835;50.068;8.154;2022-10-31T15:41:37;13.73;;;4.93;;